createdAt,value
2019-03-10T00:00:38.369Z,7.9
2019-03-10T00:01:39.779Z,7.9
2019-03-10T00:02:40.999Z,7.9
2019-03-10T00:03:42.250Z,7.9
2019-03-10T00:04:43.645Z,7.9
2019-03-10T00:05:45.220Z,7.9
2019-03-10T00:06:46.771Z,7.9
2019-03-10T00:07:48.181Z,7.9
2019-03-10T00:08:49.599Z,7.9
2019-03-10T00:09:50.998Z,7.9
2019-03-10T00:10:52.402Z,7.9
2019-03-10T00:11:53.812Z,7.9
2019-03-10T00:12:55.377Z,7.9
2019-03-10T00:13:56.917Z,7.9
2019-03-10T00:14:58.312Z,7.9
2019-03-10T00:15:59.876Z,7.9
2019-03-10T00:17:01.415Z,7.9
2019-03-10T00:18:02.807Z,7.9
2019-03-10T00:19:04.373Z,7.9
2019-03-10T00:20:05.929Z,7.9
2019-03-10T00:21:07.472Z,7.9
2019-03-10T00:22:09.018Z,7.9
2019-03-10T00:23:10.608Z,7.9
2019-03-10T00:24:11.853Z,7.9
2019-03-10T00:25:13.241Z,7.9
2019-03-10T00:26:14.776Z,7.9
2019-03-10T00:27:16.171Z,7.9
2019-03-10T00:28:17.710Z,7.9
2019-03-10T00:29:19.101Z,7.9
2019-03-10T00:30:20.701Z,7.9
2019-03-10T00:31:22.084Z,7.9
2019-03-10T00:32:23.637Z,7.9
2019-03-10T00:33:25.045Z,7.9
2019-03-10T00:34:26.601Z,7.9
2019-03-10T00:35:28.147Z,7.9
2019-03-10T00:36:29.524Z,7.9
2019-03-10T00:37:30.897Z,7.9
2019-03-10T00:38:32.421Z,7.9
2019-03-10T00:39:33.976Z,7.9
2019-03-10T00:40:35.521Z,7.9
2019-03-10T00:41:37.051Z,7.9
2019-03-10T00:42:38.271Z,7.9
2019-03-10T00:43:39.645Z,7.9
2019-03-10T00:44:40.904Z,7.9
2019-03-10T00:45:42.300Z,7.9
2019-03-10T00:46:45.488Z,7.9
2019-03-10T00:47:47.232Z,7.9
2019-03-10T00:48:48.778Z,7.9
2019-03-10T00:49:50.152Z,7.9
2019-03-10T00:50:51.586Z,7.9
2019-03-10T00:51:53.144Z,7.9
2019-03-10T00:52:54.547Z,7.9
2019-03-10T00:53:55.777Z,7.9
2019-03-10T00:54:57.389Z,7.9
2019-03-10T00:55:58.795Z,7.9
2019-03-10T00:57:00.363Z,7.9
2019-03-10T00:58:01.919Z,7.9
2019-03-10T00:59:03.316Z,7.9
2019-03-10T01:00:04.719Z,7.9
2019-03-10T01:01:06.119Z,7.9
2019-03-10T01:02:07.664Z,7.9
2019-03-10T01:03:09.218Z,7.9
2019-03-10T01:04:10.788Z,7.9
2019-03-10T01:05:12.177Z,7.9
2019-03-10T01:06:13.601Z,7.9
2019-03-10T01:07:15.003Z,7.9
2019-03-10T01:08:16.541Z,7.9
2019-03-10T01:09:17.939Z,7.9
2019-03-10T01:10:19.468Z,7.9
2019-03-10T01:11:20.880Z,7.9
2019-03-10T01:12:22.479Z,7.9
2019-03-10T01:13:23.869Z,7.9
2019-03-10T01:14:25.288Z,7.9
2019-03-10T01:15:26.540Z,7.9
2019-03-10T01:16:27.785Z,7.9
2019-03-10T01:17:29.361Z,7.9
2019-03-10T01:18:30.436Z,7.9
2019-03-10T01:19:32.018Z,7.9
2019-03-10T01:20:33.418Z,7.9
2019-03-10T01:21:34.639Z,7.9
2019-03-10T01:22:36.037Z,7.9
2019-03-10T01:23:37.415Z,7.9
2019-03-10T01:24:38.639Z,7.9
2019-03-10T01:25:40.214Z,7.9
2019-03-10T01:26:41.606Z,7.9
2019-03-10T01:27:42.831Z,7.9
2019-03-10T01:28:44.401Z,7.8
2019-03-10T01:29:45.828Z,7.8
2019-03-10T01:30:47.387Z,7.8
2019-03-10T01:31:48.634Z,7.7
2019-03-10T01:32:50.047Z,7.7
2019-03-10T01:33:51.434Z,7.6
2019-03-10T01:34:52.975Z,7.5
2019-03-10T01:35:54.243Z,7.5
2019-03-10T01:36:55.808Z,7.4
2019-03-10T01:37:57.353Z,7.4
2019-03-10T01:38:58.575Z,7.3
2019-03-10T01:39:59.954Z,7.2
2019-03-10T01:41:01.337Z,7.2
2019-03-10T01:42:02.884Z,7.2
2019-03-10T01:43:04.448Z,7.2
2019-03-10T01:44:06.001Z,7.2
2019-03-10T01:45:07.387Z,7.2
2019-03-10T01:46:08.621Z,7.2
2019-03-10T01:47:10.037Z,7.2
2019-03-10T01:48:11.426Z,7.2
2019-03-10T01:49:12.991Z,7.2
2019-03-10T01:50:14.546Z,7.2
2019-03-10T01:51:15.930Z,7.2
2019-03-10T01:52:17.501Z,7.2
2019-03-10T01:53:27.235Z,7.2
2019-03-10T01:54:28.797Z,7.2
2019-03-10T01:55:30.357Z,7.2
2019-03-10T01:56:31.590Z,7.2
2019-03-10T01:57:33.153Z,7.2
2019-03-10T01:58:34.554Z,7.2
2019-03-10T01:59:35.963Z,7.2
2019-03-10T02:00:37.356Z,7.2
2019-03-10T02:01:38.592Z,7.2
2019-03-10T02:02:40.157Z,7.2
2019-03-10T02:03:41.563Z,7.2
2019-03-10T02:04:42.967Z,7.2
2019-03-10T02:05:44.205Z,7.2
2019-03-10T02:06:45.627Z,7.1
2019-03-10T02:07:47.185Z,7.1
2019-03-10T02:08:48.587Z,7.1
2019-03-10T02:09:50.147Z,7.1
2019-03-10T02:10:51.569Z,7.1
2019-03-10T02:11:53.122Z,7.1
2019-03-10T02:12:54.659Z,7.1
2019-03-10T02:13:56.042Z,7.2
2019-03-10T02:14:57.459Z,7.2
2019-03-10T02:15:58.872Z,7.1
2019-03-10T02:17:00.274Z,7.2
2019-03-10T02:18:01.870Z,7.2
2019-03-10T02:19:03.261Z,7.2
2019-03-10T02:20:04.655Z,7.2
2019-03-10T02:21:05.919Z,7.1
2019-03-10T02:22:07.473Z,7.1
2019-03-10T02:23:09.031Z,7.1
2019-03-10T02:24:10.597Z,7.1
2019-03-10T02:25:11.995Z,7.1
2019-03-10T02:26:13.387Z,7.1
2019-03-10T02:27:14.776Z,7.1
2019-03-10T02:28:16.177Z,7.1
2019-03-10T02:29:17.409Z,7.1
2019-03-10T02:30:18.989Z,7.1
2019-03-10T02:31:20.428Z,7.1
2019-03-10T02:32:21.842Z,7.1
2019-03-10T02:33:23.401Z,7.1
2019-03-10T02:34:24.787Z,7.1
2019-03-10T02:35:26.563Z,7.1
2019-03-10T02:36:28.120Z,7.1
2019-03-10T02:37:29.698Z,7.1
2019-03-10T02:38:31.290Z,7.1
2019-03-10T02:39:32.879Z,7.1
2019-03-10T02:40:34.118Z,7.1
2019-03-10T02:41:35.691Z,7.1
2019-03-10T02:42:37.261Z,7.1
2019-03-10T02:43:38.826Z,7.1
2019-03-10T02:44:40.083Z,7.1
2019-03-10T02:45:41.653Z,7.1
2019-03-10T02:46:43.236Z,7.1
2019-03-10T02:47:44.818Z,7.1
2019-03-10T02:48:46.247Z,7.1
2019-03-10T02:49:47.818Z,7.1
2019-03-10T02:50:49.306Z,7.1
2019-03-10T02:51:50.909Z,7.1
2019-03-10T02:52:52.495Z,7.2
2019-03-10T02:53:54.084Z,7.2
2019-03-10T02:54:55.512Z,7.2
2019-03-10T02:55:57.088Z,7.2
2019-03-10T02:56:58.674Z,7.2
2019-03-10T02:58:00.229Z,7.2
2019-03-10T02:59:01.840Z,7.2
2019-03-10T03:00:03.152Z,7.2
2019-03-10T03:01:04.567Z,7.2
2019-03-10T03:02:06.148Z,7.2
2019-03-10T03:03:07.687Z,7.2
2019-03-10T03:04:09.310Z,7.2
2019-03-10T03:05:10.733Z,7.2
2019-03-10T03:06:12.147Z,7.2
2019-03-10T03:07:13.703Z,7.2
2019-03-10T03:08:18.681Z,7.2
2019-03-10T03:09:20.283Z,7.3
2019-03-10T03:10:21.682Z,7.3
2019-03-10T03:11:23.125Z,7.4
2019-03-10T03:12:24.684Z,7.4
2019-03-10T03:13:26.283Z,7.5
2019-03-10T03:14:27.693Z,7.5
2019-03-10T03:15:29.089Z,7.5
2019-03-10T03:16:30.732Z,7.6
2019-03-10T03:17:32.367Z,7.6
2019-03-10T03:18:33.758Z,7.6
2019-03-10T03:19:35.369Z,7.7
2019-03-10T03:20:36.776Z,7.7
2019-03-10T03:21:45.396Z,7.7
2019-03-10T03:22:47.018Z,7.7
2019-03-10T03:23:48.427Z,7.8
2019-03-10T03:24:50.018Z,7.8
2019-03-10T03:25:51.598Z,7.8
2019-03-10T03:26:53.181Z,7.9
2019-03-10T03:27:54.410Z,7.1
2019-03-10T03:28:55.968Z,7.3
2019-03-10T03:29:57.385Z,7.4
2019-03-10T03:30:58.870Z,7.5
2019-03-10T03:32:00.717Z,7.6
2019-03-10T03:33:02.409Z,7.7
2019-03-10T03:34:04.060Z,7.8
2019-03-10T03:35:05.744Z,7.8
2019-03-10T03:36:07.337Z,7.8
2019-03-10T03:37:08.910Z,7.9
2019-03-10T03:38:10.480Z,7.9
2019-03-10T03:39:12.062Z,7.9
2019-03-10T03:40:13.618Z,7.9
2019-03-10T03:41:15.243Z,7.9
2019-03-10T03:42:16.856Z,7.9
2019-03-10T03:43:18.445Z,7.9
2019-03-10T03:44:20.014Z,7.9
2019-03-10T03:45:21.573Z,7.9
2019-03-10T03:46:23.013Z,7.9
2019-03-10T03:47:24.433Z,7.9
2019-03-10T03:48:25.996Z,7.9
2019-03-10T03:49:27.435Z,7.9
2019-03-10T03:50:29.019Z,7.9
2019-03-10T03:51:30.447Z,7.9
2019-03-10T03:52:31.991Z,7.9
2019-03-10T03:53:33.400Z,7.9
2019-03-10T03:54:34.955Z,7.9
2019-03-10T03:55:36.524Z,7.9
2019-03-10T03:56:38.074Z,7.9
2019-03-10T03:57:39.625Z,7.9
2019-03-10T03:58:41.050Z,7.9
2019-03-10T03:59:42.663Z,7.9
2019-03-10T04:00:44.268Z,7.9
2019-03-10T04:01:45.546Z,7.9
2019-03-10T04:02:47.173Z,7.9
2019-03-10T04:03:48.448Z,7.9
2019-03-10T04:04:50.075Z,7.9
2019-03-10T04:05:51.417Z,7.9
2019-03-10T04:06:53.016Z,7.9
2019-03-10T04:07:54.569Z,7.9
2019-03-10T04:08:55.984Z,7.9
2019-03-10T04:09:57.543Z,7.2
2019-03-10T04:10:59.118Z,7.3
2019-03-10T04:12:00.685Z,7.2
2019-03-10T04:13:01.981Z,7.2
2019-03-10T04:14:03.455Z,7.2
2019-03-10T04:15:05.051Z,7.2
2019-03-10T04:16:06.834Z,7.2
2019-03-10T04:17:08.098Z,7.1
2019-03-10T04:18:09.513Z,7.1
2019-03-10T04:19:11.099Z,7.1
2019-03-10T04:20:12.700Z,7.1
2019-03-10T04:21:14.261Z,7.1
2019-03-10T04:22:15.682Z,7.1
2019-03-10T04:23:17.266Z,7.1
2019-03-10T04:24:18.888Z,7.1
2019-03-10T04:25:20.154Z,7.1
2019-03-10T04:26:21.722Z,7.1
2019-03-10T04:27:23.120Z,7.1
2019-03-10T04:28:24.697Z,7.1
2019-03-10T04:29:26.296Z,7.2
2019-03-10T04:30:27.898Z,7.1
2019-03-10T04:31:29.340Z,7.1
2019-03-10T04:32:30.872Z,7.2
2019-03-10T04:33:32.115Z,7.1
2019-03-10T04:34:33.678Z,7.2
2019-03-10T04:35:35.245Z,7.2
2019-03-10T04:36:36.801Z,7.2
2019-03-10T04:37:37.873Z,7.2
2019-03-10T04:38:39.105Z,7.2
2019-03-10T04:39:40.500Z,7.2
2019-03-10T04:40:41.723Z,7.2
2019-03-10T04:41:43.280Z,7.2
2019-03-10T04:42:44.379Z,7.2
2019-03-10T04:43:45.956Z,7.2
2019-03-10T04:44:47.494Z,7.3
2019-03-10T04:45:49.073Z,7.4
2019-03-10T04:46:50.484Z,7.5
2019-03-10T04:47:51.888Z,7.6
2019-03-10T04:48:53.282Z,7.8
2019-03-10T04:49:54.660Z,7.9
2019-03-10T04:50:56.212Z,7.9
2019-03-10T04:51:57.760Z,7.9
2019-03-10T04:52:59.311Z,7.9
2019-03-10T04:54:00.864Z,7.9
2019-03-10T04:55:02.428Z,7.9
2019-03-10T04:56:03.884Z,7.9
2019-03-10T04:57:05.452Z,7.9
2019-03-10T04:58:06.871Z,7.9
2019-03-10T04:59:08.425Z,7.9
2019-03-10T05:00:09.968Z,7.9
2019-03-10T05:01:11.512Z,7.6
2019-03-10T05:02:13.060Z,7.7
2019-03-10T05:03:14.608Z,7.8
2019-03-10T05:04:16.154Z,7.9
2019-03-10T05:05:17.534Z,7.9
2019-03-10T05:06:18.451Z,7.9
2019-03-10T05:07:20.013Z,7.9
2019-03-10T05:08:21.101Z,7.9
2019-03-10T05:09:22.654Z,7.9
2019-03-10T05:10:26.295Z,7.9
2019-03-10T05:11:27.860Z,7.9
2019-03-10T05:12:29.262Z,7.9
2019-03-10T05:13:30.823Z,7.9
2019-03-10T05:14:32.392Z,7.9
2019-03-10T05:15:33.942Z,7.9
2019-03-10T05:16:35.502Z,7.9
2019-03-10T05:17:36.758Z,7.9
2019-03-10T05:18:38.312Z,7.9
2019-03-10T05:19:39.852Z,7.9
2019-03-10T05:20:41.246Z,7.9
2019-03-10T05:21:42.808Z,7.9
2019-03-10T05:22:44.364Z,7.9
2019-03-10T05:23:45.923Z,7.9
2019-03-10T05:24:47.470Z,7.9
2019-03-10T05:25:49.024Z,7.9
2019-03-10T05:26:50.488Z,7.9
2019-03-10T05:27:51.913Z,7.8
2019-03-10T05:28:53.474Z,7.8
2019-03-10T05:29:54.883Z,7.8
2019-03-10T05:30:56.254Z,7.8
2019-03-10T05:31:57.654Z,7.8
2019-03-10T05:32:59.181Z,7.8
2019-03-10T05:34:00.709Z,7.9
2019-03-10T05:35:02.104Z,7.9
2019-03-10T05:36:03.338Z,7.9
2019-03-10T05:37:04.742Z,7.9
2019-03-10T05:38:06.280Z,7.9
2019-03-10T05:39:07.828Z,7.9
2019-03-10T05:40:09.233Z,7.8
2019-03-10T05:41:10.800Z,7.8
2019-03-10T05:42:12.338Z,7.8
2019-03-10T05:43:13.554Z,7.8
2019-03-10T05:44:15.324Z,7.8
2019-03-10T05:45:16.867Z,7.8
2019-03-10T05:46:18.426Z,7.8
2019-03-10T05:47:19.971Z,7.7
2019-03-10T05:48:21.512Z,7.8
2019-03-10T05:49:23.059Z,7.8
2019-03-10T05:50:24.605Z,7.8
2019-03-10T05:51:26.159Z,7.8
2019-03-10T05:52:27.735Z,7.8
2019-03-10T05:53:29.307Z,7.9
2019-03-10T05:54:30.688Z,7.9
2019-03-10T05:55:32.102Z,7.9
2019-03-10T05:56:33.339Z,7.9
2019-03-10T05:57:34.904Z,7.9
2019-03-10T05:58:36.922Z,7.9
2019-03-10T05:59:38.488Z,7.9
2019-03-10T06:00:44.704Z,7.1
2019-03-10T06:01:46.122Z,7.2
2019-03-10T06:02:47.518Z,7.2
2019-03-10T06:03:49.049Z,7.2
2019-03-10T06:04:50.581Z,7.1
2019-03-10T06:05:51.828Z,7.1
2019-03-10T06:06:53.388Z,7.1
2019-03-10T06:07:54.639Z,7.1
2019-03-10T06:08:56.203Z,7.2
2019-03-10T06:09:57.603Z,7.1
2019-03-10T06:10:58.981Z,7.1
2019-03-10T06:12:00.473Z,7.1
2019-03-10T06:13:01.858Z,7.1
2019-03-10T06:14:03.249Z,7.1
2019-03-10T06:15:04.793Z,7.1
2019-03-10T06:16:06.348Z,7.1
2019-03-10T06:17:07.911Z,7.1
2019-03-10T06:18:15.479Z,7.1
2019-03-10T06:19:16.893Z,7.1
2019-03-10T06:20:18.526Z,7.1
2019-03-10T06:21:20.080Z,7.1
2019-03-10T06:22:21.467Z,7.1
2019-03-10T06:23:23.013Z,7.2
2019-03-10T06:24:24.255Z,7.2
2019-03-10T06:25:25.899Z,7.2
2019-03-10T06:26:27.483Z,7.2
2019-03-10T06:27:29.050Z,7.2
2019-03-10T06:28:30.612Z,7.2
2019-03-10T06:29:32.162Z,7.3
2019-03-10T06:30:33.388Z,7.3
2019-03-10T06:31:34.946Z,7.3
2019-03-10T06:32:36.542Z,7.3
2019-03-10T06:33:38.130Z,7.4
2019-03-10T06:34:40.053Z,7.4
2019-03-10T06:35:41.291Z,7.5
2019-03-10T06:36:42.837Z,7.5
2019-03-10T06:37:44.067Z,7.6
2019-03-10T06:38:45.628Z,7.6
2019-03-10T06:39:47.177Z,7.7
2019-03-10T06:40:48.737Z,7.7
2019-03-10T06:41:50.171Z,7.7
2019-03-10T06:42:51.415Z,7.8
2019-03-10T06:43:52.850Z,7.8
2019-03-10T06:44:54.246Z,7.8
2019-03-10T06:45:55.830Z,7.8
2019-03-10T06:46:57.061Z,7.8
2019-03-10T06:47:58.598Z,7.8
2019-03-10T06:48:59.969Z,7.8
2019-03-10T06:50:01.557Z,7.8
2019-03-10T06:51:02.940Z,7.8
2019-03-10T06:52:04.496Z,7.8
2019-03-10T06:53:06.049Z,7.8
2019-03-10T06:54:07.451Z,7.8
2019-03-10T06:55:08.689Z,7.8
2019-03-10T06:56:10.321Z,7.9
2019-03-10T06:57:11.720Z,7.9
2019-03-10T06:58:13.118Z,7.9
2019-03-10T06:59:14.671Z,7.9
2019-03-10T07:00:18.075Z,7.9
2019-03-10T07:01:19.697Z,7.8
2019-03-10T07:02:21.091Z,7.8
2019-03-10T07:03:22.517Z,7.8
2019-03-10T07:04:24.058Z,7.8
2019-03-10T07:05:25.620Z,7.8
2019-03-10T07:06:27.222Z,7.8
2019-03-10T07:07:28.790Z,7.8
2019-03-10T07:08:32.858Z,7.8
2019-03-10T07:09:34.445Z,7.8
2019-03-10T07:10:35.850Z,7.8
2019-03-10T07:11:37.412Z,7.8
2019-03-10T07:12:38.982Z,7.7
2019-03-10T07:13:41.325Z,7.7
2019-03-10T07:14:42.711Z,7.7
2019-03-10T07:15:43.958Z,7.7
2019-03-10T07:16:45.506Z,7.7
2019-03-10T07:17:47.050Z,7.7
2019-03-10T07:18:48.280Z,7.7
2019-03-10T07:19:49.828Z,7.7
2019-03-10T07:20:51.054Z,7.7
2019-03-10T07:21:52.306Z,7.7
2019-03-10T07:22:53.850Z,7.7
2019-03-10T07:23:55.251Z,7.6
2019-03-10T07:24:56.486Z,7.6
2019-03-10T07:25:58.019Z,7.6
2019-03-10T07:26:59.406Z,7.6
2019-03-10T07:28:00.823Z,7.6
2019-03-10T07:29:02.405Z,7.6
2019-03-10T07:30:03.961Z,7.6
2019-03-10T07:31:05.339Z,7.6
2019-03-10T07:32:09.569Z,7.6
2019-03-10T07:33:11.146Z,7.6
2019-03-10T07:34:12.695Z,7.6
2019-03-10T07:35:13.933Z,7.6
2019-03-10T07:36:15.344Z,7.6
2019-03-10T07:37:16.725Z,7.6
2019-03-10T07:38:17.989Z,7.6
2019-03-10T07:39:19.553Z,7.6
2019-03-10T07:40:20.994Z,7.6
2019-03-10T07:41:22.556Z,7.6
2019-03-10T07:42:24.117Z,7.6
2019-03-10T07:43:25.712Z,7.6
2019-03-10T07:44:27.292Z,7.5
2019-03-10T07:45:28.884Z,7.5
2019-03-10T07:46:30.425Z,7.6
2019-03-10T07:47:32.014Z,7.6
2019-03-10T07:48:33.435Z,7.6
2019-03-10T07:49:34.690Z,7.7
2019-03-10T07:50:36.105Z,7.7
2019-03-10T07:51:37.480Z,7.7
2019-03-10T07:52:39.047Z,7.7
2019-03-10T07:53:40.629Z,7.6
2019-03-10T07:54:42.028Z,7.5
2019-03-10T07:55:43.606Z,7.4
2019-03-10T07:56:45.001Z,7.3
2019-03-10T07:57:46.553Z,7.2
2019-03-10T07:58:48.146Z,7.2
2019-03-10T07:59:49.557Z,7.2
2019-03-10T08:00:51.001Z,7.2
2019-03-10T08:01:52.635Z,7.1
2019-03-10T08:02:54.195Z,7.1
2019-03-10T08:03:55.772Z,7.1
2019-03-10T08:04:56.851Z,7.1
2019-03-10T08:05:58.067Z,7.1
2019-03-10T08:06:59.467Z,7.1
2019-03-10T08:08:01.027Z,7.1
2019-03-10T08:09:02.415Z,7.2
2019-03-10T08:10:03.832Z,7.1
2019-03-10T08:11:05.242Z,7.1
2019-03-10T08:12:06.682Z,7.2
2019-03-10T08:13:08.225Z,7.2
2019-03-10T08:14:09.777Z,7.2
2019-03-10T08:15:11.568Z,7.2
2019-03-10T08:16:13.126Z,7.2
2019-03-10T08:17:14.365Z,7.2
2019-03-10T08:18:15.769Z,7.3
2019-03-10T08:19:17.304Z,7.3
2019-03-10T08:20:18.703Z,7.4
2019-03-10T08:21:20.254Z,7.5
2019-03-10T08:22:21.817Z,7.7
2019-03-10T08:23:23.387Z,7.8
2019-03-10T08:24:24.801Z,7.9
2019-03-10T08:25:26.219Z,7.9
2019-03-10T08:26:27.655Z,7.9
2019-03-10T08:27:29.225Z,7.9
2019-03-10T08:28:30.846Z,7.9
2019-03-10T08:29:32.271Z,7.5
2019-03-10T08:30:33.683Z,7.7
2019-03-10T08:31:35.279Z,7.9
2019-03-10T08:32:36.821Z,7.9
2019-03-10T08:33:38.236Z,7.7
2019-03-10T08:34:39.749Z,7.7
2019-03-10T08:35:41.318Z,7.7
2019-03-10T08:36:42.894Z,7.7
2019-03-10T08:37:44.515Z,7.7
2019-03-10T08:38:45.919Z,7.7
2019-03-10T08:39:47.325Z,7.7
2019-03-10T08:40:48.744Z,7.6
2019-03-10T08:41:50.293Z,7.6
2019-03-10T08:42:51.744Z,7.6
2019-03-10T08:43:53.129Z,7.5
2019-03-10T08:44:54.676Z,7.5
2019-03-10T08:45:55.913Z,7.4
2019-03-10T08:46:57.489Z,7.4
2019-03-10T08:47:59.791Z,7.3
2019-03-10T08:49:01.366Z,7.3
2019-03-10T08:50:02.987Z,7.3
2019-03-10T08:51:04.530Z,7.2
2019-03-10T08:52:05.921Z,7.2
2019-03-10T08:53:07.231Z,7.2
2019-03-10T08:54:08.617Z,7.2
2019-03-10T08:55:10.173Z,7.2
2019-03-10T08:56:11.729Z,7.2
2019-03-10T08:57:13.268Z,7.2
2019-03-10T08:58:14.696Z,7.2
2019-03-10T08:59:16.084Z,7.2
2019-03-10T09:00:17.783Z,7.2
2019-03-10T09:01:19.174Z,7.3
2019-03-10T09:02:20.415Z,7.3
2019-03-10T09:03:21.935Z,7.3
2019-03-10T09:04:23.334Z,7.3
2019-03-10T09:05:24.885Z,7.4
2019-03-10T09:06:26.279Z,7.4
2019-03-10T09:07:27.704Z,7.4
2019-03-10T09:08:28.945Z,7.4
2019-03-10T09:09:30.216Z,7.5
2019-03-10T09:10:31.764Z,7.5
2019-03-10T09:11:33.033Z,7.5
2019-03-10T09:12:34.279Z,7.5
2019-03-10T09:13:35.881Z,7.6
2019-03-10T09:14:37.301Z,7.6
2019-03-10T09:15:41.507Z,7.6
2019-03-10T09:16:43.190Z,7.7
2019-03-10T09:17:44.591Z,7.7
2019-03-10T09:18:45.844Z,7.7
2019-03-10T09:19:47.253Z,7.8
2019-03-10T09:20:48.488Z,7.8
2019-03-10T09:21:49.881Z,7.8
2019-03-10T09:22:51.467Z,7.8
2019-03-10T09:23:52.869Z,7.8
2019-03-10T09:24:54.114Z,7.8
2019-03-10T09:25:55.659Z,7.8
2019-03-10T09:26:57.131Z,7.9
2019-03-10T09:27:58.699Z,7.8
2019-03-10T09:29:00.119Z,7.8
2019-03-10T09:30:01.790Z,7.7
2019-03-10T09:31:03.057Z,7.6
2019-03-10T09:32:04.638Z,7.5
2019-03-10T09:33:06.202Z,7.4
2019-03-10T09:34:07.644Z,7.3
2019-03-10T09:35:09.061Z,7.2
2019-03-10T09:36:10.642Z,7.1
2019-03-10T09:37:11.945Z,7.2
2019-03-10T09:38:13.389Z,7.2
2019-03-10T09:39:14.830Z,7.1
2019-03-10T09:40:16.224Z,7.1
2019-03-10T09:41:17.612Z,7.2
2019-03-10T09:42:19.202Z,7.1
2019-03-10T09:43:20.780Z,7.1
2019-03-10T09:44:22.178Z,7.1
2019-03-10T09:45:23.761Z,7.2
2019-03-10T09:46:25.185Z,7.2
2019-03-10T09:47:26.729Z,7.2
2019-03-10T09:48:28.301Z,7.2
2019-03-10T09:49:29.698Z,7.2
2019-03-10T09:50:31.232Z,7.2
2019-03-10T09:51:32.643Z,7.2
2019-03-10T09:52:34.025Z,7.2
2019-03-10T09:53:35.595Z,7.2
2019-03-10T09:54:36.997Z,7.2
2019-03-10T09:55:38.389Z,7.2
2019-03-10T09:56:39.949Z,7.3
2019-03-10T09:57:41.493Z,7.3
2019-03-10T09:58:43.077Z,7.4
2019-03-10T09:59:44.477Z,7.4
2019-03-10T10:00:46.031Z,7.5
2019-03-10T10:01:47.606Z,7.5
2019-03-10T10:02:49.164Z,7.6
2019-03-10T10:03:50.718Z,7.7
2019-03-10T10:04:52.103Z,7.8
2019-03-10T10:05:53.505Z,7.9
2019-03-10T10:06:55.062Z,7.9
2019-03-10T10:07:56.476Z,7.7
2019-03-10T10:08:57.715Z,7.8
2019-03-10T10:09:59.277Z,7.9
2019-03-10T10:11:00.872Z,7.9
2019-03-10T10:12:14.384Z,7.9
2019-03-10T10:13:15.884Z,7.9
2019-03-10T10:14:17.126Z,7.8
2019-03-10T10:15:18.712Z,7.8
2019-03-10T10:16:20.124Z,7.9
2019-03-10T10:17:21.680Z,7.9
2019-03-10T10:18:23.101Z,7.9
2019-03-10T10:19:24.501Z,7.9
2019-03-10T10:20:28.424Z,7.9
2019-03-10T10:21:29.984Z,7.9
2019-03-10T10:22:31.600Z,7.9
2019-03-10T10:23:32.834Z,7.9
2019-03-10T10:24:34.392Z,7.8
2019-03-10T10:25:35.987Z,7.8
2019-03-10T10:26:37.556Z,7.8
2019-03-10T10:27:39.106Z,7.8
2019-03-10T10:28:40.490Z,7.9
2019-03-10T10:29:42.029Z,7.9
2019-03-10T10:30:43.430Z,7.9
2019-03-10T10:31:44.673Z,7.9
2019-03-10T10:32:46.214Z,7.9
2019-03-10T10:33:47.820Z,7.9
2019-03-10T10:34:49.214Z,7.8
2019-03-10T10:35:50.628Z,7.8
2019-03-10T10:36:52.052Z,7.8
2019-03-10T10:37:53.645Z,7.8
2019-03-10T10:38:55.224Z,7.8
2019-03-10T10:39:56.255Z,7.8
2019-03-10T10:40:57.847Z,7.8
2019-03-10T10:41:59.515Z,7.8
2019-03-10T10:43:00.782Z,7.8
2019-03-10T10:44:02.259Z,7.8
2019-03-10T10:45:03.657Z,7.8
2019-03-10T10:46:05.246Z,7.8
2019-03-10T10:47:06.657Z,7.8
2019-03-10T10:48:08.080Z,7.8
2019-03-10T10:49:09.669Z,7.8
2019-03-10T10:50:10.954Z,7.9
2019-03-10T10:51:12.635Z,7.2
2019-03-10T10:52:14.297Z,7.3
2019-03-10T10:53:16.011Z,7.4
2019-03-10T10:54:17.655Z,7.4
2019-03-10T10:55:19.296Z,7.5
2019-03-10T10:56:20.888Z,7.5
2019-03-10T10:57:22.368Z,7.5
2019-03-10T10:58:23.617Z,7.6
2019-03-10T10:59:25.172Z,7.6
2019-03-10T11:00:26.761Z,7.6
2019-03-10T11:01:28.385Z,7.6
2019-03-10T11:02:29.971Z,7.6
2019-03-10T11:03:31.404Z,7.6
2019-03-10T11:04:32.972Z,7.6
2019-03-10T11:05:34.528Z,7.5
2019-03-10T11:06:36.082Z,7.4
2019-03-10T11:07:37.754Z,7.3
2019-03-10T11:08:39.012Z,7.2
2019-03-10T11:09:40.591Z,7.2
2019-03-10T11:10:42.002Z,7.1
2019-03-10T11:11:43.768Z,7.1
2019-03-10T11:12:44.993Z,7.2
2019-03-10T11:13:46.536Z,7.1
2019-03-10T11:14:48.122Z,7.1
2019-03-10T11:15:49.678Z,7.1
2019-03-10T11:16:51.106Z,7.1
2019-03-10T11:17:52.355Z,7.1
2019-03-10T11:18:53.908Z,7.1
2019-03-10T11:19:55.137Z,7.1
2019-03-10T11:20:57.769Z,7.1
2019-03-10T11:21:59.202Z,7.1
2019-03-10T11:23:00.804Z,7.1
2019-03-10T11:24:02.413Z,7.2
2019-03-10T11:25:04.008Z,7.1
2019-03-10T11:26:05.594Z,7.1
2019-03-10T11:27:06.868Z,7.2
2019-03-10T11:28:08.450Z,7.1
2019-03-10T11:29:09.734Z,7.2
2019-03-10T11:30:11.011Z,7.2
2019-03-10T11:31:14.836Z,7.2
2019-03-10T11:32:16.255Z,7.2
2019-03-10T11:33:17.809Z,7.2
2019-03-10T11:34:19.239Z,7.2
2019-03-10T11:35:20.661Z,7.2
2019-03-10T11:36:21.927Z,7.2
2019-03-10T11:37:23.323Z,7.2
2019-03-10T11:38:24.752Z,7.3
2019-03-10T11:39:26.341Z,7.3
2019-03-10T11:40:27.668Z,7.4
2019-03-10T11:41:35.586Z,7.4
2019-03-10T11:42:37.144Z,7.5
2019-03-10T11:43:38.556Z,7.6
2019-03-10T11:44:39.988Z,7.8
2019-03-10T11:45:41.367Z,7.8
2019-03-10T11:46:42.923Z,7.9
2019-03-10T11:47:44.320Z,7.9
2019-03-10T11:48:45.953Z,7.9
2019-03-10T11:49:47.641Z,7.9
2019-03-10T11:50:48.901Z,7.9
2019-03-10T11:51:50.338Z,7.9
2019-03-10T11:52:51.970Z,7.9
2019-03-10T11:53:53.525Z,7.9
2019-03-10T11:54:55.098Z,7.9
2019-03-10T11:55:56.374Z,7.9
2019-03-10T11:56:58.022Z,7.9
2019-03-10T11:57:59.592Z,7.9
2019-03-10T11:59:01.178Z,7.9
2019-03-10T12:00:02.783Z,7.9
2019-03-10T12:01:04.346Z,7.9
2019-03-10T12:02:17.810Z,7.9
2019-03-10T12:03:19.063Z,7.9
2019-03-10T12:04:20.479Z,7.9
2019-03-10T12:05:21.897Z,7.9
2019-03-10T12:06:23.362Z,7.9
2019-03-10T12:07:24.798Z,7.9
2019-03-10T12:08:26.381Z,7.9
2019-03-10T12:09:27.772Z,7.9
2019-03-10T12:10:29.362Z,7.9
2019-03-10T12:11:30.943Z,7.4
2019-03-10T12:12:32.378Z,7.5
2019-03-10T12:13:33.609Z,7.6
2019-03-10T12:14:35.024Z,7.7
2019-03-10T12:15:36.479Z,7.8
2019-03-10T12:16:38.123Z,7.9
2019-03-10T12:17:39.732Z,7.9
2019-03-10T12:18:41.403Z,7.9
2019-03-10T12:19:43.002Z,7.9
2019-03-10T12:20:44.601Z,7.9
2019-03-10T12:21:46.168Z,7.9
2019-03-10T12:22:47.903Z,7.9
2019-03-10T12:23:49.460Z,7.9
2019-03-10T12:24:51.034Z,7.9
2019-03-10T12:25:52.408Z,7.9
2019-03-10T12:26:54.048Z,7.9
2019-03-10T12:27:55.654Z,7.9
2019-03-10T12:28:57.208Z,7.9
2019-03-10T12:29:58.275Z,7.9
2019-03-10T12:30:59.823Z,7.9
2019-03-10T12:32:01.447Z,7.9
2019-03-10T12:33:02.877Z,7.4
2019-03-10T12:34:06.782Z,7.5
2019-03-10T12:35:08.202Z,7.6
2019-03-10T12:36:09.760Z,7.7
2019-03-10T12:37:11.182Z,7.7
2019-03-10T12:38:12.760Z,7.6
2019-03-10T12:39:14.179Z,7.6
2019-03-10T12:40:15.762Z,7.5
2019-03-10T12:41:17.331Z,7.4
2019-03-10T12:42:18.758Z,7.3
2019-03-10T12:43:20.176Z,7.2
2019-03-10T12:44:21.582Z,7.2
2019-03-10T12:45:23.206Z,7.2
2019-03-10T12:46:24.780Z,7.2
2019-03-10T12:47:26.339Z,7.2
2019-03-10T12:48:27.913Z,7.2
2019-03-10T12:49:29.335Z,7.2
2019-03-10T12:50:30.754Z,7.2
2019-03-10T12:51:32.183Z,7.1
2019-03-10T12:52:33.828Z,7.2
2019-03-10T12:53:35.065Z,7.2
2019-03-10T12:54:36.489Z,7.1
2019-03-10T12:55:37.907Z,7.2
2019-03-10T12:56:41.896Z,7.1
2019-03-10T12:57:43.471Z,7.1
2019-03-10T12:58:45.048Z,7.2
2019-03-10T12:59:46.601Z,7.1
2019-03-10T13:00:48.031Z,7.2
2019-03-10T13:01:49.598Z,7.2
2019-03-10T13:02:50.880Z,7.1
2019-03-10T13:04:00.880Z,7.2
2019-03-10T13:05:02.382Z,7.2
2019-03-10T13:06:03.826Z,7.2
2019-03-10T13:07:05.105Z,7.2
2019-03-10T13:08:06.712Z,7.2
2019-03-10T13:09:08.304Z,7.2
2019-03-10T13:10:12.644Z,7.2
2019-03-10T13:11:14.422Z,7.2
2019-03-10T13:12:15.986Z,7.2
2019-03-10T13:13:17.595Z,7.2
2019-03-10T13:14:19.191Z,7.3
2019-03-10T13:15:20.610Z,7.3
2019-03-10T13:16:21.936Z,7.4
2019-03-10T13:17:23.520Z,7.4
2019-03-10T13:18:24.933Z,7.5
2019-03-10T13:19:26.335Z,7.7
2019-03-10T13:20:30.177Z,7.8
2019-03-10T13:21:32.143Z,7.9
2019-03-10T13:22:33.746Z,7.9
2019-03-10T13:23:35.299Z,7.9
2019-03-10T13:24:36.570Z,7.9
2019-03-10T13:25:38.137Z,7.9
2019-03-10T13:26:42.251Z,7.9
2019-03-10T13:27:43.658Z,7.7
2019-03-10T13:28:45.261Z,7.9
2019-03-10T13:29:46.520Z,7.9
2019-03-10T13:30:47.760Z,7.9
2019-03-10T13:31:49.189Z,7.9
2019-03-10T13:32:50.758Z,7.9
2019-03-10T13:33:52.148Z,7.9
2019-03-10T13:34:53.558Z,7.9
2019-03-10T13:35:57.364Z,7.9
2019-03-10T13:36:58.633Z,7.8
2019-03-10T13:38:00.058Z,7.9
2019-03-10T13:39:01.489Z,7.9
2019-03-10T13:40:03.079Z,7.8
2019-03-10T13:41:04.690Z,7.9
2019-03-10T13:42:06.155Z,7.8
2019-03-10T13:43:07.726Z,7.9
2019-03-10T13:44:09.359Z,7.9
2019-03-10T13:45:10.780Z,7.9
2019-03-10T13:46:12.425Z,7.9
2019-03-10T13:47:13.842Z,7.9
2019-03-10T13:48:15.262Z,7.9
2019-03-10T13:49:17.012Z,7.9
2019-03-10T13:50:18.601Z,7.9
2019-03-10T13:51:20.185Z,7.9
2019-03-10T13:52:21.744Z,7.9
2019-03-10T13:53:23.307Z,7.7
2019-03-10T13:54:24.915Z,7.8
2019-03-10T13:55:26.311Z,7.9
2019-03-10T13:56:27.891Z,7.9
2019-03-10T13:57:29.312Z,7.8
2019-03-10T13:58:30.731Z,7.9
2019-03-10T13:59:32.306Z,7.9
2019-03-10T14:00:33.894Z,7.9
2019-03-10T14:01:35.476Z,7.9
2019-03-10T14:02:37.060Z,7.9
2019-03-10T14:03:38.620Z,7.9
2019-03-10T14:04:40.078Z,7.9
2019-03-10T14:05:41.508Z,7.9
2019-03-10T14:06:42.974Z,7.9
2019-03-10T14:07:44.230Z,7.9
2019-03-10T14:08:45.652Z,7.9